createdAt,value
2022-07-27T00:01:00.594Z,17.43
2022-07-27T00:03:48.825Z,17.54
2022-07-27T00:06:36.917Z,16.79
2022-07-27T00:09:24.938Z,15.90
2022-07-27T00:12:12.829Z,15.24
2022-07-27T00:15:02.522Z,15.04
2022-07-27T00:17:50.731Z,16.19
2022-07-27T00:20:40.225Z,16.92
2022-07-27T00:23:28.049Z,17.36
2022-07-27T00:26:15.934Z,17.63
2022-07-27T00:29:04.116Z,17.45
2022-07-27T00:31:51.899Z,16.50
2022-07-27T00:34:39.613Z,15.68
2022-07-27T00:37:27.515Z,15.07
2022-07-27T00:40:16.374Z,14.91
2022-07-27T00:43:04.352Z,15.86
2022-07-27T00:45:52.195Z,16.64
2022-07-27T00:48:40.263Z,17.10
2022-07-27T00:51:28.477Z,17.34
2022-07-27T00:54:17.848Z,17.24
2022-07-27T00:57:05.997Z,16.30
2022-07-27T00:59:54.440Z,15.47
2022-07-27T01:02:46.369Z,14.87
2022-07-27T01:05:37.857Z,14.74
2022-07-27T01:08:30.894Z,15.69
2022-07-27T01:11:18.909Z,16.33
2022-07-27T01:14:08.091Z,16.67
2022-07-27T01:16:56.035Z,16.91
2022-07-27T01:19:45.760Z,16.42
2022-07-27T01:22:33.775Z,15.58
2022-07-27T01:25:21.617Z,14.95
2022-07-27T01:28:09.787Z,14.92
2022-07-27T01:30:57.600Z,15.90
2022-07-27T01:33:45.433Z,16.70
2022-07-27T01:36:33.454Z,17.17
2022-07-27T01:39:21.702Z,17.16
2022-07-27T01:42:09.824Z,16.25
2022-07-27T01:44:57.832Z,15.46
2022-07-27T01:47:45.646Z,15.16
2022-07-27T01:50:33.710Z,15.92
2022-07-27T01:53:23.031Z,16.57
2022-07-27T01:56:12.875Z,16.93
2022-07-27T01:59:00.689Z,16.58
2022-07-27T02:01:48.441Z,15.62
2022-07-27T02:04:36.404Z,15.08
2022-07-27T02:07:24.228Z,15.73
2022-07-27T02:10:12.255Z,16.26
2022-07-27T02:13:00.379Z,16.54
2022-07-27T02:15:48.456Z,16.81
2022-07-27T02:18:37.522Z,16.97
2022-07-27T02:21:25.571Z,17.07
2022-07-27T02:24:14.602Z,17.15
2022-07-27T02:27:02.560Z,16.90
2022-07-27T02:29:51.072Z,15.87
2022-07-27T02:32:40.945Z,14.97
2022-07-27T02:35:32.608Z,14.67
2022-07-27T02:38:20.610Z,15.44
2022-07-27T02:41:08.405Z,16.02
2022-07-27T02:43:57.363Z,16.37
2022-07-27T02:46:45.044Z,16.54
2022-07-27T02:49:32.970Z,16.72
2022-07-27T02:52:21.077Z,16.84
2022-07-27T02:55:10.174Z,16.96
2022-07-27T02:57:58.421Z,17.04
2022-07-27T03:00:46.413Z,17.01
2022-07-27T03:03:36.775Z,16.14
2022-07-27T03:06:25.443Z,15.12
2022-07-27T03:09:13.808Z,14.67
2022-07-27T03:12:03.908Z,15.37
2022-07-27T03:14:52.058Z,16.10
2022-07-27T03:17:39.807Z,16.59
2022-07-27T03:20:28.460Z,16.87
2022-07-27T03:23:18.695Z,16.32
2022-07-27T03:26:07.462Z,15.22
2022-07-27T03:28:56.404Z,14.73
2022-07-27T03:31:45.762Z,15.42
2022-07-27T03:34:34.898Z,16.09
2022-07-27T03:37:22.828Z,16.39
2022-07-27T03:40:12.127Z,16.54
2022-07-27T03:43:01.155Z,15.85
2022-07-27T03:45:49.135Z,14.90
2022-07-27T03:48:36.806Z,15.08
2022-07-27T03:51:25.192Z,15.65
2022-07-27T03:54:13.507Z,15.95
2022-07-27T03:57:02.413Z,16.07
2022-07-27T03:59:50.607Z,16.14
2022-07-27T04:02:40.528Z,16.39
2022-07-27T04:05:29.367Z,16.48
2022-07-27T04:08:18.036Z,16.53
2022-07-27T04:11:05.812Z,16.62
2022-07-27T04:13:55.667Z,16.75
2022-07-27T04:16:43.600Z,16.96
2022-07-27T04:19:31.660Z,17.14
2022-07-27T04:22:19.658Z,17.30
2022-07-27T04:25:08.197Z,17.40
2022-07-27T04:27:56.362Z,16.71
2022-07-27T04:30:44.133Z,16.31
2022-07-27T04:33:32.253Z,17.11
2022-07-27T04:36:20.175Z,17.75
2022-07-27T04:39:08.250Z,17.78
2022-07-27T04:41:56.596Z,16.95
2022-07-27T04:44:44.594Z,16.61
2022-07-27T04:47:33.906Z,17.31
2022-07-27T04:50:21.648Z,17.91
2022-07-27T04:53:13.407Z,17.85
2022-07-27T04:56:01.706Z,16.94
2022-07-27T04:58:49.817Z,16.37
2022-07-27T05:01:37.790Z,17.00
2022-07-27T05:04:26.187Z,17.87
2022-07-27T05:07:14.304Z,18.55
2022-07-27T05:10:02.540Z,18.69
2022-07-27T05:12:50.658Z,17.90
2022-07-27T05:15:54.002Z,17.34
2022-07-27T05:18:45.811Z,17.05
2022-07-27T05:21:34.139Z,17.76
2022-07-27T05:24:22.424Z,19.33
2022-07-27T05:27:10.440Z,21.12
2022-07-27T05:29:58.581Z,22.16
2022-07-27T05:32:47.961Z,23.08
2022-07-27T05:35:37.346Z,23.84
2022-07-27T05:38:25.099Z,24.62
2022-07-27T05:41:13.012Z,25.65
2022-07-27T05:44:00.865Z,26.66
2022-07-27T05:46:48.759Z,27.58
2022-07-27T05:49:36.890Z,28.37
2022-07-27T05:52:25.200Z,29.38
2022-07-27T05:55:13.319Z,30.29
2022-07-27T05:58:01.020Z,31.03
2022-07-27T06:00:49.198Z,31.50
2022-07-27T06:03:38.685Z,31.69
2022-07-27T06:06:47.972Z,32.01
2022-07-27T06:09:36.500Z,32.49
2022-07-27T06:12:30.181Z,32.94
2022-07-27T06:15:19.704Z,32.88
2022-07-27T06:18:09.282Z,32.86
2022-07-27T06:20:58.038Z,32.93
2022-07-27T06:23:48.632Z,32.37
2022-07-27T06:26:36.425Z,30.43
2022-07-27T06:29:24.463Z,28.91
2022-07-27T06:32:12.419Z,28.36
2022-07-27T06:35:03.191Z,28.54
2022-07-27T06:37:53.202Z,28.26
2022-07-27T06:40:41.395Z,28.77
2022-07-27T06:43:32.844Z,29.51
2022-07-27T06:46:21.130Z,30.00
2022-07-27T06:49:09.487Z,30.93
2022-07-27T06:51:59.966Z,31.63
2022-07-27T06:54:48.212Z,32.11
2022-07-27T06:57:36.233Z,32.72
2022-07-27T07:00:24.893Z,33.39
2022-07-27T07:03:12.745Z,33.41
2022-07-27T07:06:00.841Z,33.60
2022-07-27T07:08:48.757Z,34.08
2022-07-27T07:11:37.397Z,34.22
2022-07-27T07:14:26.412Z,33.75
2022-07-27T07:17:14.345Z,33.22
2022-07-27T07:20:02.392Z,32.89
2022-07-27T07:22:51.142Z,32.74
2022-07-27T07:25:41.109Z,32.23
2022-07-27T07:28:28.737Z,32.32
2022-07-27T07:31:16.912Z,32.65
2022-07-27T07:34:04.932Z,33.17
2022-07-27T07:36:52.866Z,33.05
2022-07-27T07:39:40.698Z,32.04
2022-07-27T07:42:28.681Z,30.69
2022-07-27T07:45:17.276Z,29.11
2022-07-27T07:48:06.356Z,27.67
2022-07-27T07:50:54.278Z,26.65
2022-07-27T07:53:42.483Z,25.92
2022-07-27T07:56:30.500Z,25.93
2022-07-27T07:59:18.818Z,27.37
2022-07-27T08:02:07.401Z,28.99
2022-07-27T08:04:55.520Z,30.16
2022-07-27T08:07:45.686Z,30.94
2022-07-27T08:10:34.047Z,30.98
2022-07-27T08:13:22.837Z,29.80
2022-07-27T08:16:10.938Z,28.13
2022-07-27T08:18:58.790Z,26.72
2022-07-27T08:21:46.806Z,25.55
2022-07-27T08:24:34.804Z,24.68
2022-07-27T08:27:22.973Z,23.83
2022-07-27T08:30:11.726Z,23.05
2022-07-27T08:33:02.469Z,22.35
2022-07-27T08:35:50.668Z,21.75
2022-07-27T08:38:38.357Z,21.48
2022-07-27T08:41:27.736Z,21.57
2022-07-27T08:44:16.130Z,21.77
2022-07-27T08:47:04.660Z,22.16
2022-07-27T08:49:53.455Z,22.80
2022-07-27T08:52:41.413Z,23.63
2022-07-27T08:55:32.127Z,24.63
2022-07-27T08:58:19.962Z,25.79
2022-07-27T09:01:07.874Z,27.29
2022-07-27T09:03:55.946Z,27.62
2022-07-27T09:06:53.306Z,27.12
2022-07-27T09:09:47.125Z,26.03
2022-07-27T09:12:36.211Z,24.72
2022-07-27T09:15:24.360Z,23.35
2022-07-27T09:18:25.688Z,22.13
2022-07-27T09:21:23.896Z,21.14
2022-07-27T09:24:44.421Z,20.52
2022-07-27T09:27:31.149Z,20.01
2022-07-27T09:30:22.767Z,19.70
2022-07-27T09:33:11.373Z,19.66
2022-07-27T09:36:00.174Z,20.01
2022-07-27T09:39:01.744Z,20.51
2022-07-27T09:41:55.580Z,21.18
2022-07-27T09:44:45.073Z,21.98
2022-07-27T09:47:34.731Z,22.69
2022-07-27T09:50:31.068Z,23.23
2022-07-27T09:53:42.485Z,23.56
2022-07-27T09:56:33.392Z,23.51
2022-07-27T09:59:21.171Z,24.23
2022-07-27T10:02:09.368Z,25.47
2022-07-27T10:04:57.192Z,26.64
2022-07-27T10:07:45.463Z,27.62
2022-07-27T10:10:33.343Z,27.90
2022-07-27T10:13:21.489Z,27.32
2022-07-27T10:16:15.651Z,26.69
2022-07-27T10:19:14.746Z,26.12
2022-07-27T10:22:03.221Z,25.27
2022-07-27T10:25:00.638Z,24.57
2022-07-27T10:28:10.561Z,23.81
2022-07-27T10:31:17.917Z,22.89
2022-07-27T10:34:09.674Z,22.20
2022-07-27T10:37:11.968Z,21.66
2022-07-27T10:40:26.512Z,21.26
2022-07-27T10:43:21.105Z,21.12
2022-07-27T10:46:11.631Z,21.08
2022-07-27T10:49:19.627Z,21.09
2022-07-27T10:52:43.318Z,21.17
2022-07-27T10:55:37.098Z,20.90
2022-07-27T10:58:25.437Z,20.50
2022-07-27T11:01:14.522Z,20.03
2022-07-27T11:04:11.142Z,19.46
2022-07-27T11:07:24.162Z,18.95
2022-07-27T11:10:11.144Z,18.50
2022-07-27T11:13:05.318Z,18.23
2022-07-27T11:16:25.933Z,18.13
2022-07-27T11:19:14.491Z,18.26
2022-07-27T11:22:04.642Z,18.50
2022-07-27T11:24:53.150Z,18.84
2022-07-27T11:27:50.318Z,19.27
2022-07-27T11:30:39.090Z,19.83
2022-07-27T11:33:28.180Z,20.47
2022-07-27T11:36:15.903Z,21.00
2022-07-27T11:39:06.548Z,21.15
2022-07-27T11:42:11.772Z,21.10
2022-07-27T11:45:01.569Z,21.05
2022-07-27T11:47:58.145Z,21.05
2022-07-27T11:50:59.965Z,21.14
2022-07-27T11:53:48.277Z,21.36
2022-07-27T11:56:40.279Z,21.55
2022-07-27T11:59:34.495Z,21.68
2022-07-27T12:02:22.363Z,21.83
2022-07-27T12:05:11.540Z,22.05
2022-07-27T12:07:59.995Z,22.15
2022-07-27T12:11:08.428Z,22.06
2022-07-27T12:13:59.864Z,21.82
2022-07-27T12:16:48.369Z,21.66
2022-07-27T12:19:36.314Z,21.47
2022-07-27T12:22:39.995Z,21.12
2022-07-27T12:25:30.022Z,20.56
2022-07-27T12:28:28.096Z,20.11
2022-07-27T12:31:18.654Z,19.72
2022-07-27T12:34:07.619Z,19.50
2022-07-27T12:36:55.912Z,19.46
2022-07-27T12:39:46.417Z,19.65
2022-07-27T12:42:37.713Z,20.00
2022-07-27T12:45:33.991Z,20.38
2022-07-27T12:48:36.762Z,20.68
2022-07-27T12:51:24.951Z,20.83
2022-07-27T12:54:13.123Z,20.91
2022-07-27T12:57:02.587Z,20.99
2022-07-27T12:59:50.866Z,21.02
2022-07-27T13:02:40.243Z,21.02
2022-07-27T13:05:28.764Z,20.82
2022-07-27T13:08:17.534Z,20.53
2022-07-27T13:11:05.221Z,20.25
2022-07-27T13:13:53.705Z,20.05
2022-07-27T13:16:42.011Z,19.82
2022-07-27T13:19:30.129Z,19.66
2022-07-27T13:22:18.208Z,19.53
2022-07-27T13:25:15.991Z,19.39
2022-07-27T13:28:05.894Z,19.36
2022-07-27T13:30:54.147Z,19.37
2022-07-27T13:33:41.945Z,19.39
2022-07-27T13:36:30.165Z,19.41
2022-07-27T13:39:18.018Z,19.40
2022-07-27T13:42:06.194Z,19.44
2022-07-27T13:45:08.540Z,19.40
2022-07-27T13:47:57.636Z,19.39
2022-07-27T13:50:45.689Z,19.42
2022-07-27T13:53:33.938Z,19.46
2022-07-27T13:56:23.883Z,19.60
2022-07-27T13:59:13.037Z,19.73
2022-07-27T14:02:01.384Z,19.78
2022-07-27T14:04:49.874Z,19.75
2022-07-27T14:07:38.324Z,19.63
2022-07-27T14:10:31.941Z,19.48
2022-07-27T14:13:22.319Z,19.36
2022-07-27T14:16:10.823Z,19.22
2022-07-27T14:18:59.866Z,19.08
2022-07-27T14:21:50.238Z,18.95
2022-07-27T14:24:44.717Z,18.87
2022-07-27T14:27:33.697Z,18.68
2022-07-27T14:30:27.653Z,18.44
2022-07-27T14:33:16.285Z,18.21
2022-07-27T14:36:11.807Z,18.06
2022-07-27T14:38:59.769Z,17.98
2022-07-27T14:41:47.779Z,17.88
2022-07-27T14:44:35.850Z,17.79
2022-07-27T14:47:28.398Z,17.69
2022-07-27T14:50:16.619Z,17.59
2022-07-27T14:53:05.327Z,17.58
2022-07-27T14:55:53.533Z,17.62
2022-07-27T14:58:45.606Z,17.55
2022-07-27T15:01:34.594Z,17.38
2022-07-27T15:04:22.856Z,17.43
2022-07-27T15:07:11.674Z,18.30
2022-07-27T15:10:00.480Z,18.19
2022-07-27T15:12:49.259Z,17.77
2022-07-27T15:15:37.254Z,17.52
2022-07-27T15:18:27.283Z,17.35
2022-07-27T15:21:15.701Z,17.23
2022-07-27T15:24:03.855Z,17.12
2022-07-27T15:26:53.484Z,17.03
2022-07-27T15:29:41.752Z,16.94
2022-07-27T15:32:29.740Z,16.91
2022-07-27T15:35:17.948Z,16.85
2022-07-27T15:38:06.011Z,16.82
2022-07-27T15:40:54.108Z,16.77
2022-07-27T15:43:42.734Z,16.74
2022-07-27T15:46:32.791Z,16.72
2022-07-27T15:49:21.138Z,16.72
2022-07-27T15:52:09.030Z,16.74
2022-07-27T15:54:57.579Z,16.74
2022-07-27T15:57:45.569Z,17.49
2022-07-27T16:00:39.554Z,18.46
2022-07-27T16:03:33.976Z,18.21
2022-07-27T16:06:22.842Z,17.51
2022-07-27T16:09:12.038Z,17.07
2022-07-27T16:12:04.448Z,17.22
2022-07-27T16:15:00.161Z,18.43
2022-07-27T16:17:52.741Z,19.04
2022-07-27T16:20:41.214Z,18.49
2022-07-27T16:23:37.864Z,18.03
2022-07-27T16:26:27.161Z,17.71
2022-07-27T16:29:18.543Z,17.47
2022-07-27T16:32:06.722Z,17.25
2022-07-27T16:34:55.069Z,17.09
2022-07-27T16:37:43.267Z,17.30
2022-07-27T16:40:34.790Z,18.57
2022-07-27T16:43:33.927Z,19.01
2022-07-27T16:46:29.185Z,18.52
2022-07-27T16:49:18.654Z,18.17
2022-07-27T16:52:07.019Z,17.95
2022-07-27T16:54:55.180Z,17.77
2022-07-27T16:57:43.191Z,17.62
2022-07-27T17:00:36.496Z,17.45
2022-07-27T17:03:27.255Z,17.25
2022-07-27T17:06:16.441Z,17.04
2022-07-27T17:09:04.709Z,16.88
2022-07-27T17:11:53.718Z,16.72
2022-07-27T17:14:42.537Z,16.54
2022-07-27T17:17:31.111Z,16.35
2022-07-27T17:20:31.511Z,16.18
2022-07-27T17:23:49.261Z,16.02
2022-07-27T17:26:37.395Z,15.92
2022-07-27T17:29:25.914Z,16.16
2022-07-27T17:32:14.596Z,17.41
2022-07-27T17:35:04.992Z,17.75
2022-07-27T17:38:06.059Z,17.30
2022-07-27T17:40:55.024Z,16.95
2022-07-27T17:43:43.212Z,16.71
2022-07-27T17:46:35.509Z,16.45
2022-07-27T17:49:26.945Z,16.19
2022-07-27T17:52:15.748Z,15.97
2022-07-27T17:55:04.856Z,15.76
2022-07-27T17:57:52.600Z,15.92
2022-07-27T18:00:41.828Z,17.09
2022-07-27T18:03:30.025Z,17.42
2022-07-27T18:06:17.952Z,16.79
2022-07-27T18:09:07.671Z,16.28
2022-07-27T18:11:55.675Z,16.20
2022-07-27T18:15:04.054Z,17.19
2022-07-27T18:17:52.291Z,17.03
2022-07-27T18:20:40.326Z,16.42
2022-07-27T18:23:30.637Z,15.97
2022-07-27T18:26:18.903Z,16.05
2022-07-27T18:29:07.415Z,17.10
2022-07-27T18:31:55.522Z,17.57
2022-07-27T18:34:43.710Z,16.94
2022-07-27T18:37:36.151Z,16.30
2022-07-27T18:40:26.332Z,16.17
2022-07-27T18:43:17.163Z,17.03
2022-07-27T18:46:05.971Z,17.49
2022-07-27T18:48:55.458Z,16.78
2022-07-27T18:51:43.929Z,16.14
2022-07-27T18:54:31.976Z,15.72
2022-07-27T18:57:28.339Z,15.77
2022-07-27T19:00:24.249Z,16.84
2022-07-27T19:03:12.001Z,17.63
2022-07-27T19:05:59.985Z,18.10
2022-07-27T19:08:59.827Z,17.99
2022-07-27T19:11:53.404Z,16.99
2022-07-27T19:14:43.966Z,16.28
2022-07-27T19:17:39.026Z,15.80
2022-07-27T19:20:27.125Z,15.74
2022-07-27T19:23:15.108Z,16.64
2022-07-27T19:26:02.986Z,17.42
2022-07-27T19:28:51.203Z,17.35
2022-07-27T19:31:39.474Z,16.62
2022-07-27T19:34:27.490Z,16.02
2022-07-27T19:37:16.942Z,15.86
2022-07-27T19:40:33.716Z,16.74
2022-07-27T19:43:15.853Z,17.62
2022-07-27T19:46:03.818Z,17.74
2022-07-27T19:48:52.035Z,16.96
2022-07-27T19:51:40.219Z,16.25
2022-07-27T19:54:29.104Z,16.11
2022-07-27T19:57:17.236Z,16.94
2022-07-27T20:00:08.983Z,17.50
2022-07-27T20:02:58.890Z,17.08
2022-07-27T20:05:48.396Z,16.36
2022-07-27T20:08:36.936Z,16.37
2022-07-27T20:11:25.375Z,17.16
2022-07-27T20:14:13.413Z,17.65
2022-07-27T20:17:04.690Z,17.78
2022-07-27T20:19:52.861Z,16.99
2022-07-27T20:22:41.673Z,16.54
2022-07-27T20:25:29.782Z,17.16
2022-07-27T20:28:17.852Z,17.62
2022-07-27T20:31:06.560Z,17.84
2022-07-27T20:33:54.592Z,17.24
2022-07-27T20:36:42.791Z,16.46
2022-07-27T20:39:30.878Z,16.31
2022-07-27T20:42:18.977Z,17.07
2022-07-27T20:45:10.293Z,17.58
2022-07-27T20:47:58.326Z,17.86
2022-07-27T20:50:46.579Z,17.36
2022-07-27T20:53:34.650Z,16.82
2022-07-27T20:56:22.752Z,17.26
2022-07-27T20:59:16.825Z,17.78
2022-07-27T21:02:07.694Z,18.08
2022-07-27T21:04:56.252Z,17.61
2022-07-27T21:07:46.772Z,16.71
2022-07-27T21:10:35.084Z,16.40
2022-07-27T21:13:23.694Z,17.04
2022-07-27T21:16:11.980Z,17.59
2022-07-27T21:18:59.944Z,17.97
2022-07-27T21:21:47.833Z,18.22
2022-07-27T21:24:36.886Z,17.56
2022-07-27T21:27:25.161Z,16.67
2022-07-27T21:30:14.373Z,16.68
2022-07-27T21:33:02.477Z,17.42
2022-07-27T21:35:50.490Z,17.85
2022-07-27T21:38:38.437Z,17.95
2022-07-27T21:41:26.473Z,17.28
2022-07-27T21:44:15.220Z,16.51
2022-07-27T21:47:03.886Z,16.46
2022-07-27T21:49:51.401Z,17.22
2022-07-27T21:52:39.695Z,17.70
2022-07-27T21:55:27.499Z,18.08
2022-07-27T21:58:15.706Z,18.29
2022-07-27T22:01:03.648Z,18.50
2022-07-27T22:03:52.793Z,18.66
2022-07-27T22:06:41.115Z,18.31
2022-07-27T22:09:29.580Z,17.39
2022-07-27T22:12:17.328Z,16.69
2022-07-27T22:15:08.843Z,17.12
2022-07-27T22:17:56.746Z,17.65
2022-07-27T22:20:44.741Z,17.95
2022-07-27T22:23:32.802Z,18.18
2022-07-27T22:26:20.806Z,18.12
2022-07-27T22:29:09.223Z,17.24
2022-07-27T22:31:57.333Z,16.76
2022-07-27T22:34:45.340Z,17.38
2022-07-27T22:37:33.369Z,17.92
2022-07-27T22:40:23.140Z,18.14
2022-07-27T22:43:12.392Z,18.43
2022-07-27T22:46:02.309Z,17.94
2022-07-27T22:48:50.420Z,16.95
2022-07-27T22:51:50.226Z,16.82
2022-07-27T22:54:42.158Z,17.43
2022-07-27T22:57:30.099Z,17.81
2022-07-27T23:00:18.973Z,18.05
2022-07-27T23:03:07.910Z,18.26
2022-07-27T23:05:56.025Z,18.28
2022-07-27T23:08:43.963Z,17.51
2022-07-27T23:11:34.306Z,16.94
2022-07-27T23:14:26.073Z,17.40
2022-07-27T23:17:14.276Z,17.76
2022-07-27T23:20:02.308Z,17.91
2022-07-27T23:22:50.250Z,18.06
2022-07-27T23:25:39.001Z,18.11
2022-07-27T23:28:26.577Z,18.25
2022-07-27T23:31:16.062Z,18.34
2022-07-27T23:34:04.085Z,18.44
2022-07-27T23:36:52.126Z,18.47
2022-07-27T23:39:40.118Z,18.43
2022-07-27T23:42:28.309Z,18.41
2022-07-27T23:45:16.656Z,18.52
2022-07-27T23:48:04.710Z,18.08
2022-07-27T23:50:52.681Z,17.14
2022-07-27T23:53:41.017Z,17.37
2022-07-27T23:56:29.098Z,17.83
2022-07-27T23:59:17.005Z,18.04
